sensor_id;sensor_type;location;lat;lon;timestamp;P1;durP1;ratioP1;P2;durP2;ratioP2
30301;SDS011;17111;52.130;5.028;2023-11-21T00:01:03;10.75;;;7.55;;
30301;SDS011;17111;52.130;5.028;2023-11-21T00:03:31;11.52;;;6.95;;
30301;SDS011;17111;52.130;5.028;2023-11-21T00:05:58;11.38;;;7.30;;
30301;SDS011;17111;52.130;5.028;2023-11-21T00:08:24;11.05;;;6.55;;
30301;SDS011;17111;52.130;5.028;2023-11-21T00:10:51;9.77;;;6.88;;
30301;SDS011;17111;52.130;5.028;2023-11-21T00:13:18;10.65;;;6.78;;
30301;SDS011;17111;52.130;5.028;2023-11-21T00:15:44;9.35;;;6.47;;
30301;SDS011;17111;52.130;5.028;2023-11-21T00:18:11;10.63;;;6.43;;
30301;SDS011;17111;52.130;5.028;2023-11-21T00:20:38;10.15;;;6.60;;
30301;SDS011;17111;52.130;5.028;2023-11-21T00:23:04;9.95;;;6.22;;
30301;SDS011;17111;52.130;5.028;2023-11-21T00:25:31;9.75;;;6.03;;
30301;SDS011;17111;52.130;5.028;2023-11-21T00:27:58;9.82;;;6.18;;
30301;SDS011;17111;52.130;5.028;2023-11-21T00:30:25;10.23;;;6.72;;
30301;SDS011;17111;52.130;5.028;2023-11-21T00:32:52;8.73;;;6.35;;
30301;SDS011;17111;52.130;5.028;2023-11-21T00:35:19;10.00;;;6.53;;
30301;SDS011;17111;52.130;5.028;2023-11-21T00:37:45;10.13;;;6.70;;
30301;SDS011;17111;52.130;5.028;2023-11-21T00:40:12;9.95;;;6.57;;
30301;SDS011;17111;52.130;5.028;2023-11-21T00:42:41;8.70;;;6.43;;
30301;SDS011;17111;52.130;5.028;2023-11-21T00:45:08;9.55;;;5.90;;
30301;SDS011;17111;52.130;5.028;2023-11-21T00:47:35;11.80;;;6.90;;
30301;SDS011;17111;52.130;5.028;2023-11-21T00:50:01;9.63;;;6.07;;
30301;SDS011;17111;52.130;5.028;2023-11-21T00:52:28;10.40;;;6.53;;
30301;SDS011;17111;52.130;5.028;2023-11-21T00:54:55;12.02;;;6.70;;
30301;SDS011;17111;52.130;5.028;2023-11-21T00:57:21;9.52;;;5.53;;
30301;SDS011;17111;52.130;5.028;2023-11-21T00:59:48;9.15;;;6.03;;
30301;SDS011;17111;52.130;5.028;2023-11-21T01:02:15;8.52;;;5.75;;
30301;SDS011;17111;52.130;5.028;2023-11-21T01:04:41;8.23;;;5.97;;
30301;SDS011;17111;52.130;5.028;2023-11-21T01:07:08;10.10;;;6.05;;
30301;SDS011;17111;52.130;5.028;2023-11-21T01:09:35;8.70;;;5.93;;
30301;SDS011;17111;52.130;5.028;2023-11-21T01:12:02;9.57;;;6.03;;
30301;SDS011;17111;52.130;5.028;2023-11-21T01:14:28;8.50;;;5.60;;
30301;SDS011;17111;52.130;5.028;2023-11-21T01:16:55;8.23;;;5.50;;
30301;SDS011;17111;52.130;5.028;2023-11-21T01:19:22;8.30;;;5.38;;
30301;SDS011;17111;52.130;5.028;2023-11-21T01:21:48;7.75;;;5.55;;
30301;SDS011;17111;52.130;5.028;2023-11-21T01:24:15;8.20;;;5.50;;
30301;SDS011;17111;52.130;5.028;2023-11-21T01:26:42;7.75;;;5.10;;
30301;SDS011;17111;52.130;5.028;2023-11-21T01:29:08;8.45;;;5.13;;
30301;SDS011;17111;52.130;5.028;2023-11-21T01:31:35;7.57;;;5.35;;
30301;SDS011;17111;52.130;5.028;2023-11-21T01:34:01;9.88;;;5.50;;
30301;SDS011;17111;52.130;5.028;2023-11-21T01:36:31;7.13;;;4.90;;
30301;SDS011;17111;52.130;5.028;2023-11-21T01:38:59;8.88;;;5.03;;
30301;SDS011;17111;52.130;5.028;2023-11-21T01:41:26;7.60;;;5.10;;
30301;SDS011;17111;52.130;5.028;2023-11-21T01:43:55;7.45;;;4.88;;
30301;SDS011;17111;52.130;5.028;2023-11-21T01:46:22;7.90;;;4.78;;
30301;SDS011;17111;52.130;5.028;2023-11-21T01:48:51;7.00;;;4.88;;
30301;SDS011;17111;52.130;5.028;2023-11-21T01:51:19;8.73;;;5.25;;
30301;SDS011;17111;52.130;5.028;2023-11-21T01:53:46;7.88;;;5.15;;
30301;SDS011;17111;52.130;5.028;2023-11-21T01:56:13;6.85;;;4.75;;
30301;SDS011;17111;52.130;5.028;2023-11-21T01:58:40;8.43;;;5.35;;
30301;SDS011;17111;52.130;5.028;2023-11-21T02:01:08;7.18;;;4.90;;
30301;SDS011;17111;52.130;5.028;2023-11-21T02:03:36;8.40;;;4.95;;
30301;SDS011;17111;52.130;5.028;2023-11-21T02:06:02;6.10;;;4.38;;
30301;SDS011;17111;52.130;5.028;2023-11-21T02:08:29;6.75;;;4.40;;
30301;SDS011;17111;52.130;5.028;2023-11-21T02:10:56;6.95;;;4.80;;
30301;SDS011;17111;52.130;5.028;2023-11-21T02:13:24;6.85;;;4.57;;
30301;SDS011;17111;52.130;5.028;2023-11-21T02:15:50;6.97;;;4.25;;
30301;SDS011;17111;52.130;5.028;2023-11-21T02:18:18;5.72;;;3.75;;
30301;SDS011;17111;52.130;5.028;2023-11-21T02:20:45;7.03;;;4.47;;
30301;SDS011;17111;52.130;5.028;2023-11-21T02:23:13;7.47;;;4.72;;
30301;SDS011;17111;52.130;5.028;2023-11-21T02:25:41;6.63;;;4.80;;
30301;SDS011;17111;52.130;5.028;2023-11-21T02:28:09;5.30;;;4.05;;
30301;SDS011;17111;52.130;5.028;2023-11-21T02:30:39;6.95;;;4.43;;
30301;SDS011;17111;52.130;5.028;2023-11-21T02:33:05;6.50;;;3.60;;
30301;SDS011;17111;52.130;5.028;2023-11-21T02:35:33;6.10;;;4.00;;
30301;SDS011;17111;52.130;5.028;2023-11-21T02:38:01;7.13;;;4.57;;
30301;SDS011;17111;52.130;5.028;2023-11-21T02:40:28;6.93;;;3.97;;
30301;SDS011;17111;52.130;5.028;2023-11-21T02:42:56;8.88;;;4.60;;
30301;SDS011;17111;52.130;5.028;2023-11-21T02:45:25;6.15;;;3.75;;
30301;SDS011;17111;52.130;5.028;2023-11-21T02:47:52;6.53;;;3.90;;
30301;SDS011;17111;52.130;5.028;2023-11-21T02:50:23;6.95;;;4.07;;
30301;SDS011;17111;52.130;5.028;2023-11-21T02:52:50;6.47;;;4.45;;
30301;SDS011;17111;52.130;5.028;2023-11-21T02:55:17;5.82;;;3.95;;
30301;SDS011;17111;52.130;5.028;2023-11-21T02:57:44;6.88;;;4.57;;
30301;SDS011;17111;52.130;5.028;2023-11-21T03:00:11;5.35;;;3.70;;
30301;SDS011;17111;52.130;5.028;2023-11-21T03:02:39;6.03;;;4.13;;
30301;SDS011;17111;52.130;5.028;2023-11-21T03:05:07;7.35;;;4.13;;
30301;SDS011;17111;52.130;5.028;2023-11-21T03:07:39;6.20;;;3.70;;
30301;SDS011;17111;52.130;5.028;2023-11-21T03:10:06;5.85;;;3.97;;
30301;SDS011;17111;52.130;5.028;2023-11-21T03:12:36;5.47;;;3.80;;
30301;SDS011;17111;52.130;5.028;2023-11-21T03:15:04;6.35;;;4.00;;
30301;SDS011;17111;52.130;5.028;2023-11-21T03:17:32;5.57;;;3.75;;
30301;SDS011;17111;52.130;5.028;2023-11-21T03:20:00;5.93;;;3.72;;
30301;SDS011;17111;52.130;5.028;2023-11-21T03:22:27;5.65;;;3.63;;
30301;SDS011;17111;52.130;5.028;2023-11-21T03:24:53;4.82;;;3.40;;
30301;SDS011;17111;52.130;5.028;2023-11-21T03:27:20;5.35;;;3.75;;
30301;SDS011;17111;52.130;5.028;2023-11-21T03:29:47;4.75;;;3.03;;
30301;SDS011;17111;52.130;5.028;2023-11-21T03:32:14;5.20;;;3.45;;
30301;SDS011;17111;52.130;5.028;2023-11-21T03:34:56;7.25;;;3.88;;
30301;SDS011;17111;52.130;5.028;2023-11-21T03:37:25;5.43;;;3.57;;
30301;SDS011;17111;52.130;5.028;2023-11-21T03:39:54;5.65;;;3.55;;
30301;SDS011;17111;52.130;5.028;2023-11-21T03:42:22;4.72;;;3.58;;
30301;SDS011;17111;52.130;5.028;2023-11-21T03:44:48;4.47;;;3.25;;
30301;SDS011;17111;52.130;5.028;2023-11-21T03:47:15;4.35;;;2.88;;
30301;SDS011;17111;52.130;5.028;2023-11-21T03:49:42;4.82;;;3.33;;
30301;SDS011;17111;52.130;5.028;2023-11-21T03:52:08;5.75;;;3.67;;
30301;SDS011;17111;52.130;5.028;2023-11-21T03:54:35;6.10;;;3.63;;
30301;SDS011;17111;52.130;5.028;2023-11-21T03:57:02;6.25;;;3.92;;
30301;SDS011;17111;52.130;5.028;2023-11-21T03:59:29;4.55;;;3.10;;
30301;SDS011;17111;52.130;5.028;2023-11-21T04:01:56;6.47;;;3.30;;
30301;SDS011;17111;52.130;5.028;2023-11-21T04:04:23;5.25;;;3.22;;
30301;SDS011;17111;52.130;5.028;2023-11-21T04:06:50;4.88;;;3.28;;
30301;SDS011;17111;52.130;5.028;2023-11-21T04:09:18;4.28;;;3.10;;
30301;SDS011;17111;52.130;5.028;2023-11-21T04:11:44;4.75;;;3.13;;
30301;SDS011;17111;52.130;5.028;2023-11-21T04:14:12;4.72;;;2.97;;
30301;SDS011;17111;52.130;5.028;2023-11-21T04:16:38;5.10;;;3.22;;
30301;SDS011;17111;52.130;5.028;2023-11-21T04:19:05;5.38;;;3.15;;
30301;SDS011;17111;52.130;5.028;2023-11-21T04:21:31;4.50;;;3.22;;
30301;SDS011;17111;52.130;5.028;2023-11-21T04:23:59;4.57;;;3.08;;
30301;SDS011;17111;52.130;5.028;2023-11-21T04:26:26;4.85;;;3.05;;
30301;SDS011;17111;52.130;5.028;2023-11-21T04:28:52;5.05;;;3.03;;
30301;SDS011;17111;52.130;5.028;2023-11-21T04:31:19;4.45;;;3.30;;
30301;SDS011;17111;52.130;5.028;2023-11-21T04:33:45;4.70;;;3.20;;
30301;SDS011;17111;52.130;5.028;2023-11-21T04:36:12;4.85;;;2.80;;
30301;SDS011;17111;52.130;5.028;2023-11-21T04:38:39;4.55;;;2.75;;
30301;SDS011;17111;52.130;5.028;2023-11-21T04:41:08;4.45;;;2.60;;
30301;SDS011;17111;52.130;5.028;2023-11-21T04:43:35;3.95;;;2.72;;
30301;SDS011;17111;52.130;5.028;2023-11-21T04:46:02;4.80;;;3.45;;
30301;SDS011;17111;52.130;5.028;2023-11-21T04:48:28;4.95;;;3.42;;
30301;SDS011;17111;52.130;5.028;2023-11-21T04:50:55;6.28;;;3.00;;
30301;SDS011;17111;52.130;5.028;2023-11-21T04:53:22;4.35;;;2.95;;
30301;SDS011;17111;52.130;5.028;2023-11-21T04:55:48;5.75;;;3.30;;
30301;SDS011;17111;52.130;5.028;2023-11-21T04:58:15;3.72;;;2.53;;
30301;SDS011;17111;52.130;5.028;2023-11-21T05:00:42;3.38;;;2.63;;
30301;SDS011;17111;52.130;5.028;2023-11-21T05:03:09;5.80;;;2.83;;
30301;SDS011;17111;52.130;5.028;2023-11-21T05:05:36;4.32;;;2.92;;
30301;SDS011;17111;52.130;5.028;2023-11-21T05:08:03;8.38;;;2.92;;
30301;SDS011;17111;52.130;5.028;2023-11-21T05:10:30;4.55;;;2.50;;
30301;SDS011;17111;52.130;5.028;2023-11-21T05:12:57;3.85;;;2.55;;
30301;SDS011;17111;52.130;5.028;2023-11-21T05:15:24;4.47;;;2.95;;
30301;SDS011;17111;52.130;5.028;2023-11-21T05:17:51;4.18;;;2.90;;
30301;SDS011;17111;52.130;5.028;2023-11-21T05:20:18;6.05;;;3.25;;
30301;SDS011;17111;52.130;5.028;2023-11-21T05:22:48;5.28;;;3.00;;
30301;SDS011;17111;52.130;5.028;2023-11-21T05:25:15;4.93;;;2.65;;
30301;SDS011;17111;52.130;5.028;2023-11-21T05:27:47;4.70;;;2.85;;
30301;SDS011;17111;52.130;5.028;2023-11-21T05:30:14;5.47;;;2.78;;
30301;SDS011;17111;52.130;5.028;2023-11-21T05:32:41;4.25;;;3.00;;
30301;SDS011;17111;52.130;5.028;2023-11-21T05:35:11;7.63;;;3.28;;
30301;SDS011;17111;52.130;5.028;2023-11-21T05:37:43;4.85;;;3.08;;
30301;SDS011;17111;52.130;5.028;2023-11-21T05:40:12;5.03;;;3.10;;
30301;SDS011;17111;52.130;5.028;2023-11-21T05:42:39;5.93;;;3.38;;
30301;SDS011;17111;52.130;5.028;2023-11-21T05:45:07;5.10;;;2.70;;
30301;SDS011;17111;52.130;5.028;2023-11-21T05:47:41;3.25;;;2.58;;
30301;SDS011;17111;52.130;5.028;2023-11-21T05:50:13;3.50;;;2.45;;
30301;SDS011;17111;52.130;5.028;2023-11-21T05:52:42;3.97;;;2.90;;
30301;SDS011;17111;52.130;5.028;2023-11-21T05:55:10;8.85;;;3.88;;
30301;SDS011;17111;52.130;5.028;2023-11-21T05:57:37;5.20;;;2.97;;
30301;SDS011;17111;52.130;5.028;2023-11-21T06:00:05;4.50;;;2.72;;
30301;SDS011;17111;52.130;5.028;2023-11-21T06:02:38;4.50;;;2.72;;
30301;SDS011;17111;52.130;5.028;2023-11-21T06:05:06;5.10;;;3.33;;
30301;SDS011;17111;52.130;5.028;2023-11-21T06:07:34;5.10;;;3.42;;
30301;SDS011;17111;52.130;5.028;2023-11-21T06:10:02;3.72;;;2.65;;
30301;SDS011;17111;52.130;5.028;2023-11-21T06:12:32;4.68;;;3.05;;
30301;SDS011;17111;52.130;5.028;2023-11-21T06:15:02;6.40;;;3.45;;
30301;SDS011;17111;52.130;5.028;2023-11-21T06:17:31;4.03;;;2.80;;
30301;SDS011;17111;52.130;5.028;2023-11-21T06:19:58;5.05;;;3.20;;
30301;SDS011;17111;52.130;5.028;2023-11-21T06:22:25;5.68;;;3.35;;
30301;SDS011;17111;52.130;5.028;2023-11-21T06:24:51;4.95;;;3.20;;
30301;SDS011;17111;52.130;5.028;2023-11-21T06:27:18;5.72;;;3.35;;
30301;SDS011;17111;52.130;5.028;2023-11-21T06:29:44;5.43;;;3.28;;
30301;SDS011;17111;52.130;5.028;2023-11-21T06:32:11;4.93;;;3.08;;
30301;SDS011;17111;52.130;5.028;2023-11-21T06:34:39;4.00;;;3.15;;
30301;SDS011;17111;52.130;5.028;2023-11-21T06:37:05;4.85;;;3.13;;
30301;SDS011;17111;52.130;5.028;2023-11-21T06:39:32;5.57;;;3.40;;
30301;SDS011;17111;52.130;5.028;2023-11-21T06:41:58;4.65;;;3.40;;
30301;SDS011;17111;52.130;5.028;2023-11-21T06:44:26;5.75;;;3.30;;
30301;SDS011;17111;52.130;5.028;2023-11-21T06:46:53;4.18;;;2.83;;
30301;SDS011;17111;52.130;5.028;2023-11-21T06:49:19;4.93;;;3.25;;
30301;SDS011;17111;52.130;5.028;2023-11-21T06:51:46;5.18;;;4.03;;
30301;SDS011;17111;52.130;5.028;2023-11-21T06:54:13;4.70;;;3.30;;
30301;SDS011;17111;52.130;5.028;2023-11-21T06:56:40;3.60;;;2.88;;
30301;SDS011;17111;52.130;5.028;2023-11-21T06:59:07;4.70;;;3.20;;
30301;SDS011;17111;52.130;5.028;2023-11-21T07:01:35;5.38;;;3.38;;
30301;SDS011;17111;52.130;5.028;2023-11-21T07:04:05;6.10;;;3.75;;
30301;SDS011;17111;52.130;5.028;2023-11-21T07:06:33;4.90;;;3.30;;
30301;SDS011;17111;52.130;5.028;2023-11-21T07:08:59;4.90;;;2.88;;
30301;SDS011;17111;52.130;5.028;2023-11-21T07:11:27;4.60;;;3.05;;
30301;SDS011;17111;52.130;5.028;2023-11-21T07:13:54;4.28;;;2.80;;
30301;SDS011;17111;52.130;5.028;2023-11-21T07:16:20;4.82;;;3.30;;
30301;SDS011;17111;52.130;5.028;2023-11-21T07:18:48;5.10;;;3.40;;
30301;SDS011;17111;52.130;5.028;2023-11-21T07:21:15;5.68;;;2.92;;
30301;SDS011;17111;52.130;5.028;2023-11-21T07:23:42;4.47;;;2.97;;
30301;SDS011;17111;52.130;5.028;2023-11-21T07:26:08;5.43;;;3.30;;
30301;SDS011;17111;52.130;5.028;2023-11-21T07:28:37;4.05;;;2.90;;
30301;SDS011;17111;52.130;5.028;2023-11-21T07:31:03;4.13;;;3.08;;
30301;SDS011;17111;52.130;5.028;2023-11-21T07:33:30;5.47;;;3.45;;
30301;SDS011;17111;52.130;5.028;2023-11-21T07:35:57;3.92;;;2.85;;
30301;SDS011;17111;52.130;5.028;2023-11-21T07:38:23;4.43;;;2.90;;
30301;SDS011;17111;52.130;5.028;2023-11-21T07:40:50;4.07;;;3.25;;
30301;SDS011;17111;52.130;5.028;2023-11-21T07:43:17;5.88;;;3.65;;
30301;SDS011;17111;52.130;5.028;2023-11-21T07:45:45;6.40;;;3.95;;
30301;SDS011;17111;52.130;5.028;2023-11-21T07:48:12;7.43;;;3.67;;
30301;SDS011;17111;52.130;5.028;2023-11-21T07:50:39;6.75;;;3.25;;
30301;SDS011;17111;52.130;5.028;2023-11-21T07:53:06;6.90;;;3.58;;
30301;SDS011;17111;52.130;5.028;2023-11-21T07:55:32;4.93;;;3.17;;
30301;SDS011;17111;52.130;5.028;2023-11-21T07:57:59;6.03;;;3.38;;
30301;SDS011;17111;52.130;5.028;2023-11-21T08:00:26;7.40;;;3.33;;
30301;SDS011;17111;52.130;5.028;2023-11-21T08:02:56;4.80;;;3.25;;
30301;SDS011;17111;52.130;5.028;2023-11-21T08:05:23;6.88;;;3.63;;
30301;SDS011;17111;52.130;5.028;2023-11-21T08:08:02;5.50;;;3.22;;
30301;SDS011;17111;52.130;5.028;2023-11-21T08:10:29;5.18;;;2.92;;
30301;SDS011;17111;52.130;5.028;2023-11-21T08:12:56;5.35;;;2.88;;
30301;SDS011;17111;52.130;5.028;2023-11-21T08:15:23;4.07;;;2.88;;
30301;SDS011;17111;52.130;5.028;2023-11-21T08:17:49;5.13;;;3.13;;
30301;SDS011;17111;52.130;5.028;2023-11-21T08:20:16;4.20;;;2.42;;
30301;SDS011;17111;52.130;5.028;2023-11-21T08:22:44;5.50;;;3.22;;
30301;SDS011;17111;52.130;5.028;2023-11-21T08:25:11;6.30;;;2.88;;
30301;SDS011;17111;52.130;5.028;2023-11-21T08:27:38;4.80;;;2.92;;
30301;SDS011;17111;52.130;5.028;2023-11-21T08:30:05;4.22;;;2.53;;
30301;SDS011;17111;52.130;5.028;2023-11-21T08:32:33;8.70;;;2.92;;
30301;SDS011;17111;52.130;5.028;2023-11-21T08:35:00;5.35;;;2.83;;
30301;SDS011;17111;52.130;5.028;2023-11-21T08:37:27;4.05;;;2.45;;
30301;SDS011;17111;52.130;5.028;2023-11-21T08:39:57;8.10;;;2.75;;
30301;SDS011;17111;52.130;5.028;2023-11-21T08:42:26;5.00;;;2.95;;
30301;SDS011;17111;52.130;5.028;2023-11-21T08:44:56;5.32;;;2.53;;
30301;SDS011;17111;52.130;5.028;2023-11-21T08:47:24;7.85;;;2.80;;
30301;SDS011;17111;52.130;5.028;2023-11-21T08:49:50;4.78;;;2.85;;
30301;SDS011;17111;52.130;5.028;2023-11-21T08:52:20;4.57;;;2.50;;
30301;SDS011;17111;52.130;5.028;2023-11-21T08:54:49;6.95;;;3.28;;
30301;SDS011;17111;52.130;5.028;2023-11-21T08:57:22;3.70;;;2.75;;
30301;SDS011;17111;52.130;5.028;2023-11-21T08:59:49;5.70;;;2.47;;
30301;SDS011;17111;52.130;5.028;2023-11-21T09:02:21;3.80;;;2.45;;
30301;SDS011;17111;52.130;5.028;2023-11-21T09:04:51;4.13;;;2.90;;
30301;SDS011;17111;52.130;5.028;2023-11-21T09:07:19;5.68;;;3.00;;
30301;SDS011;17111;52.130;5.028;2023-11-21T09:09:47;7.18;;;2.60;;
30301;SDS011;17111;52.130;5.028;2023-11-21T09:12:14;3.55;;;2.28;;
30301;SDS011;17111;52.130;5.028;2023-11-21T09:14:42;4.55;;;2.60;;
30301;SDS011;17111;52.130;5.028;2023-11-21T09:17:10;4.13;;;2.70;;
30301;SDS011;17111;52.130;5.028;2023-11-21T09:19:40;5.80;;;2.30;;
30301;SDS011;17111;52.130;5.028;2023-11-21T09:22:07;3.50;;;2.30;;
30301;SDS011;17111;52.130;5.028;2023-11-21T09:24:34;3.72;;;2.20;;
30301;SDS011;17111;52.130;5.028;2023-11-21T09:27:03;3.53;;;2.15;;
30301;SDS011;17111;52.130;5.028;2023-11-21T09:29:31;4.72;;;2.50;;
30301;SDS011;17111;52.130;5.028;2023-11-21T09:31:58;3.15;;;2.17;;
30301;SDS011;17111;52.130;5.028;2023-11-21T09:34:27;2.97;;;1.90;;
30301;SDS011;17111;52.130;5.028;2023-11-21T09:36:54;3.97;;;1.92;;
30301;SDS011;17111;52.130;5.028;2023-11-21T09:39:21;3.03;;;2.30;;
30301;SDS011;17111;52.130;5.028;2023-11-21T09:41:51;6.28;;;2.55;;
30301;SDS011;17111;52.130;5.028;2023-11-21T09:44:24;4.43;;;2.40;;
30301;SDS011;17111;52.130;5.028;2023-11-21T09:47:01;3.35;;;2.10;;
30301;SDS011;17111;52.130;5.028;2023-11-21T09:49:28;3.83;;;2.13;;
30301;SDS011;17111;52.130;5.028;2023-11-21T09:51:55;4.35;;;2.30;;
30301;SDS011;17111;52.130;5.028;2023-11-21T09:54:25;3.55;;;2.17;;
30301;SDS011;17111;52.130;5.028;2023-11-21T09:56:52;3.15;;;1.92;;
30301;SDS011;17111;52.130;5.028;2023-11-21T09:59:20;5.10;;;2.05;;
30301;SDS011;17111;52.130;5.028;2023-11-21T10:01:47;3.78;;;2.22;;
30301;SDS011;17111;52.130;5.028;2023-11-21T10:04:14;2.95;;;1.95;;
30301;SDS011;17111;52.130;5.028;2023-11-21T10:06:41;3.83;;;2.13;;
30301;SDS011;17111;52.130;5.028;2023-11-21T10:09:11;3.92;;;2.00;;
30301;SDS011;17111;52.130;5.028;2023-11-21T10:11:40;5.35;;;2.20;;
30301;SDS011;17111;52.130;5.028;2023-11-21T10:14:08;4.32;;;2.55;;
30301;SDS011;17111;52.130;5.028;2023-11-21T10:16:39;6.22;;;2.50;;
30301;SDS011;17111;52.130;5.028;2023-11-21T10:19:10;3.28;;;2.28;;
30301;SDS011;17111;52.130;5.028;2023-11-21T10:21:39;5.43;;;2.15;;
30301;SDS011;17111;52.130;5.028;2023-11-21T10:24:06;5.38;;;2.50;;
30301;SDS011;17111;52.130;5.028;2023-11-21T10:26:33;4.93;;;2.33;;
30301;SDS011;17111;52.130;5.028;2023-11-21T10:29:16;5.13;;;2.28;;
30301;SDS011;17111;52.130;5.028;2023-11-21T10:31:50;4.22;;;2.40;;
30301;SDS011;17111;52.130;5.028;2023-11-21T10:34:18;5.90;;;2.78;;
30301;SDS011;17111;52.130;5.028;2023-11-21T10:36:46;8.00;;;3.83;;
30301;SDS011;17111;52.130;5.028;2023-11-21T10:39:19;8.57;;;4.13;;
30301;SDS011;17111;52.130;5.028;2023-11-21T10:41:47;8.15;;;4.50;;
30301;SDS011;17111;52.130;5.028;2023-11-21T10:44:15;13.93;;;4.75;;
30301;SDS011;17111;52.130;5.028;2023-11-21T10:46:51;11.70;;;5.30;;
30301;SDS011;17111;52.130;5.028;2023-11-21T10:49:20;8.17;;;3.93;;
30301;SDS011;17111;52.130;5.028;2023-11-21T10:51:47;9.65;;;4.90;;
30301;SDS011;17111;52.130;5.028;2023-11-21T10:54:18;9.98;;;4.63;;
30301;SDS011;17111;52.130;5.028;2023-11-21T10:56:49;9.68;;;3.60;;
30301;SDS011;17111;52.130;5.028;2023-11-21T10:59:19;8.23;;;3.72;;
30301;SDS011;17111;52.130;5.028;2023-11-21T11:01:47;6.57;;;3.30;;
30301;SDS011;17111;52.130;5.028;2023-11-21T11:04:20;7.82;;;3.72;;
30301;SDS011;17111;52.130;5.028;2023-11-21T11:06:51;6.65;;;3.65;;
30301;SDS011;17111;52.130;5.028;2023-11-21T11:09:22;8.63;;;3.72;;
30301;SDS011;17111;52.130;5.028;2023-11-21T11:11:50;6.75;;;3.40;;
30301;SDS011;17111;52.130;5.028;2023-11-21T11:14:17;8.15;;;4.18;;
30301;SDS011;17111;52.130;5.028;2023-11-21T11:16:46;6.65;;;3.50;;
30301;SDS011;17111;52.130;5.028;2023-11-21T11:19:15;8.32;;;3.95;;
30301;SDS011;17111;52.130;5.028;2023-11-21T11:21:49;6.68;;;3.80;;
30301;SDS011;17111;52.130;5.028;2023-11-21T11:29:59;8.60;;;3.93;;
30301;SDS011;17111;52.130;5.028;2023-11-21T11:35:01;6.25;;;3.88;;
30301;SDS011;17111;52.130;5.028;2023-11-21T11:37:33;7.05;;;3.00;;
30301;SDS011;17111;52.130;5.028;2023-11-21T11:40:00;8.80;;;3.80;;
30301;SDS011;17111;52.130;5.028;2023-11-21T11:42:27;6.03;;;3.33;;
30301;SDS011;17111;52.130;5.028;2023-11-21T11:44:53;6.93;;;3.28;;
30301;SDS011;17111;52.130;5.028;2023-11-21T11:47:23;6.78;;;3.60;;
30301;SDS011;17111;52.130;5.028;2023-11-21T11:50:07;8.90;;;2.92;;
30301;SDS011;17111;52.130;5.028;2023-11-21T11:52:44;6.22;;;3.63;;
30301;SDS011;17111;52.130;5.028;2023-11-21T11:55:15;5.75;;;2.88;;
30301;SDS011;17111;52.130;5.028;2023-11-21T11:57:50;4.82;;;3.28;;
30301;SDS011;17111;52.130;5.028;2023-11-21T12:00:43;8.40;;;3.53;;
30301;SDS011;17111;52.130;5.028;2023-11-21T12:03:12;8.20;;;3.50;;
30301;SDS011;17111;52.130;5.028;2023-11-21T12:05:39;5.88;;;3.13;;
30301;SDS011;17111;52.130;5.028;2023-11-21T12:08:07;5.35;;;3.20;;
30301;SDS011;17111;52.130;5.028;2023-11-21T12:10:35;6.25;;;3.00;;
30301;SDS011;17111;52.130;5.028;2023-11-21T12:13:06;5.90;;;2.80;;
30301;SDS011;17111;52.130;5.028;2023-11-21T12:15:34;4.78;;;2.95;;
30301;SDS011;17111;52.130;5.028;2023-11-21T12:18:04;6.72;;;3.33;;
30301;SDS011;17111;52.130;5.028;2023-11-21T12:20:31;4.30;;;2.83;;
30301;SDS011;17111;52.130;5.028;2023-11-21T12:23:05;4.93;;;2.27;;
30301;SDS011;17111;52.130;5.028;2023-11-21T12:25:32;6.45;;;3.25;;
30301;SDS011;17111;52.130;5.028;2023-11-21T12:27:59;4.53;;;2.50;;
30301;SDS011;17111;52.130;5.028;2023-11-21T12:30:27;5.53;;;2.90;;
30301;SDS011;17111;52.130;5.028;2023-11-21T12:32:58;4.40;;;2.50;;
30301;SDS011;17111;52.130;5.028;2023-11-21T12:35:27;4.50;;;2.55;;
30301;SDS011;17111;52.130;5.028;2023-11-21T12:37:56;6.65;;;3.30;;
30301;SDS011;17111;52.130;5.028;2023-11-21T12:40:26;4.65;;;2.53;;
30301;SDS011;17111;52.130;5.028;2023-11-21T12:42:53;6.70;;;3.05;;
30301;SDS011;17111;52.130;5.028;2023-11-21T12:45:26;7.25;;;3.25;;
30301;SDS011;17111;52.130;5.028;2023-11-21T12:47:59;3.25;;;2.10;;
30301;SDS011;17111;52.130;5.028;2023-11-21T12:50:29;5.32;;;3.00;;
30301;SDS011;17111;52.130;5.028;2023-11-21T12:53:03;6.70;;;2.65;;
30301;SDS011;17111;52.130;5.028;2023-11-21T12:55:38;3.83;;;2.67;;
30301;SDS011;17111;52.130;5.028;2023-11-21T12:58:07;5.25;;;2.63;;
30301;SDS011;17111;52.130;5.028;2023-11-21T13:00:38;3.90;;;2.75;;
30301;SDS011;17111;52.130;5.028;2023-11-21T13:03:12;4.70;;;2.38;;
30301;SDS011;17111;52.130;5.028;2023-11-21T13:05:47;5.20;;;2.83;;
30301;SDS011;17111;52.130;5.028;2023-11-21T13:08:18;6.80;;;2.35;;
30301;SDS011;17111;52.130;5.028;2023-11-21T13:10:49;6.65;;;2.97;;
30301;SDS011;17111;52.130;5.028;2023-11-21T13:13:18;3.60;;;2.60;;
30301;SDS011;17111;52.130;5.028;2023-11-21T13:18:16;4.55;;;2.60;;
30301;SDS011;17111;52.130;5.028;2023-11-21T13:20:43;5.50;;;2.80;;
30301;SDS011;17111;52.130;5.028;2023-11-21T13:23:10;4.82;;;2.70;;
30301;SDS011;17111;52.130;5.028;2023-11-21T13:25:40;3.63;;;2.33;;
30301;SDS011;17111;52.130;5.028;2023-11-21T13:28:08;3.58;;;2.17;;
30301;SDS011;17111;52.130;5.028;2023-11-21T13:30:38;4.68;;;2.33;;
30301;SDS011;17111;52.130;5.028;2023-11-21T13:33:06;12.02;;;3.00;;
30301;SDS011;17111;52.130;5.028;2023-11-21T13:35:35;5.35;;;2.50;;
30301;SDS011;17111;52.130;5.028;2023-11-21T13:38:10;6.65;;;2.90;;
30301;SDS011;17111;52.130;5.028;2023-11-21T13:40:39;5.28;;;2.95;;
30301;SDS011;17111;52.130;5.028;2023-11-21T13:43:11;6.18;;;2.67;;
30301;SDS011;17111;52.130;5.028;2023-11-21T13:45:40;4.72;;;2.53;;
30301;SDS011;17111;52.130;5.028;2023-11-21T13:48:11;4.25;;;2.03;;
30301;SDS011;17111;52.130;5.028;2023-11-21T13:50:40;3.50;;;2.53;;
30301;SDS011;17111;52.130;5.028;2023-11-21T13:53:15;4.45;;;2.47;;
30301;SDS011;17111;52.130;5.028;2023-11-21T13:55:49;3.92;;;2.47;;
30301;SDS011;17111;52.130;5.028;2023-11-21T13:58:17;4.43;;;2.47;;
30301;SDS011;17111;52.130;5.028;2023-11-21T14:00:48;4.88;;;2.97;;
30301;SDS011;17111;52.130;5.028;2023-11-21T14:03:23;2.70;;;2.17;;
30301;SDS011;17111;52.130;5.028;2023-11-21T14:05:58;3.85;;;2.60;;
30301;SDS011;17111;52.130;5.028;2023-11-21T14:08:27;3.72;;;2.30;;
30301;SDS011;17111;52.130;5.028;2023-11-21T14:10:57;4.28;;;2.50;;
30301;SDS011;17111;52.130;5.028;2023-11-21T14:13:26;2.95;;;2.15;;
30301;SDS011;17111;52.130;5.028;2023-11-21T14:15:53;3.88;;;2.50;;
30301;SDS011;17111;52.130;5.028;2023-11-21T14:18:25;3.97;;;2.42;;
30301;SDS011;17111;52.130;5.028;2023-11-21T14:21:04;3.58;;;2.33;;
30301;SDS011;17111;52.130;5.028;2023-11-21T14:23:36;3.85;;;2.47;;
30301;SDS011;17111;52.130;5.028;2023-11-21T14:26:04;2.92;;;2.22;;
30301;SDS011;17111;52.130;5.028;2023-11-21T14:28:32;3.00;;;2.45;;
30301;SDS011;17111;52.130;5.028;2023-11-21T14:31:01;3.22;;;1.92;;
30301;SDS011;17111;52.130;5.028;2023-11-21T14:33:29;3.60;;;2.33;;
30301;SDS011;17111;52.130;5.028;2023-11-21T14:35:55;3.75;;;2.10;;
30301;SDS011;17111;52.130;5.028;2023-11-21T14:38:23;3.70;;;2.53;;
30301;SDS011;17111;52.130;5.028;2023-11-21T14:40:50;3.05;;;2.00;;
30301;SDS011;17111;52.130;5.028;2023-11-21T14:43:17;3.75;;;2.08;;
30301;SDS011;17111;52.130;5.028;2023-11-21T14:45:45;2.60;;;2.10;;
30301;SDS011;17111;52.130;5.028;2023-11-21T14:48:11;2.80;;;2.15;;
30301;SDS011;17111;52.130;5.028;2023-11-21T14:50:42;2.50;;;1.73;;
30301;SDS011;17111;52.130;5.028;2023-11-21T14:53:10;4.15;;;2.63;;
30301;SDS011;17111;52.130;5.028;2023-11-21T14:55:39;3.10;;;2.08;;
30301;SDS011;17111;52.130;5.028;2023-11-21T14:58:18;3.08;;;2.33;;
30301;SDS011;17111;52.130;5.028;2023-11-21T15:00:57;3.13;;;1.98;;
30301;SDS011;17111;52.130;5.028;2023-11-21T15:03:25;4.22;;;2.50;;
30301;SDS011;17111;52.130;5.028;2023-11-21T15:06:10;3.97;;;2.17;;